sensor_id;sensor_type;location;lat;lon;timestamp;P1;durP1;ratioP1;P2;durP2;ratioP2
53688;SDS011;39583;54.682;30.662;2023-09-19T14:25:10;12.60;;;4.60;;
53688;SDS011;39583;54.682;30.662;2023-09-19T14:27:38;10.57;;;4.97;;
53688;SDS011;39583;54.682;30.662;2023-09-19T14:30:06;6.88;;;4.65;;
53688;SDS011;39583;54.682;30.662;2023-09-19T14:32:34;11.65;;;4.45;;
53688;SDS011;39583;54.682;30.662;2023-09-19T14:35:02;12.68;;;4.07;;
53688;SDS011;39583;54.682;30.662;2023-09-19T14:37:31;6.53;;;3.90;;
53688;SDS011;39583;54.682;30.662;2023-09-19T14:39:59;7.45;;;4.25;;
53688;SDS011;39583;54.682;30.662;2023-09-19T14:42:26;7.32;;;4.22;;
53688;SDS011;39583;54.682;30.662;2023-09-19T14:44:53;8.27;;;3.92;;
53688;SDS011;39583;54.682;30.662;2023-09-19T14:47:21;13.23;;;4.18;;
53688;SDS011;39583;54.682;30.662;2023-09-19T14:49:48;11.60;;;4.15;;
53688;SDS011;39583;54.682;30.662;2023-09-19T14:52:16;7.70;;;4.45;;
53688;SDS011;39583;54.682;30.662;2023-09-19T14:54:43;8.10;;;4.28;;
53688;SDS011;39583;54.682;30.662;2023-09-19T14:57:11;9.30;;;4.30;;
53688;SDS011;39583;54.682;30.662;2023-09-19T14:59:40;8.63;;;4.00;;
53688;SDS011;39583;54.682;30.662;2023-09-19T15:02:07;8.73;;;4.13;;
53688;SDS011;39583;54.682;30.662;2023-09-19T15:04:35;18.33;;;4.63;;
53688;SDS011;39583;54.682;30.662;2023-09-19T15:07:04;8.50;;;4.72;;
53688;SDS011;39583;54.682;30.662;2023-09-19T15:09:32;9.85;;;4.60;;
53688;SDS011;39583;54.682;30.662;2023-09-19T15:12:01;13.13;;;5.05;;
53688;SDS011;39583;54.682;30.662;2023-09-19T15:14:28;11.65;;;6.20;;
53688;SDS011;39583;54.682;30.662;2023-09-19T15:16:56;11.23;;;6.00;;
53688;SDS011;39583;54.682;30.662;2023-09-19T15:19:24;11.75;;;6.32;;
53688;SDS011;39583;54.682;30.662;2023-09-19T15:21:51;10.07;;;4.85;;
53688;SDS011;39583;54.682;30.662;2023-09-19T15:24:19;20.17;;;4.63;;
53688;SDS011;39583;54.682;30.662;2023-09-19T15:26:47;8.40;;;4.15;;
53688;SDS011;39583;54.682;30.662;2023-09-19T15:29:14;7.43;;;4.35;;
53688;SDS011;39583;54.682;30.662;2023-09-19T15:31:43;10.55;;;4.57;;
53688;SDS011;39583;54.682;30.662;2023-09-19T15:34:10;12.05;;;5.00;;
53688;SDS011;39583;54.682;30.662;2023-09-19T15:36:41;10.65;;;4.97;;
53688;SDS011;39583;54.682;30.662;2023-09-19T15:39:09;12.25;;;4.75;;
53688;SDS011;39583;54.682;30.662;2023-09-19T15:41:44;11.93;;;4.18;;
53688;SDS011;39583;54.682;30.662;2023-09-19T15:44:15;8.82;;;5.00;;
53688;SDS011;39583;54.682;30.662;2023-09-19T15:46:44;9.73;;;5.30;;
53688;SDS011;39583;54.682;30.662;2023-09-19T15:49:14;16.95;;;6.55;;
53688;SDS011;39583;54.682;30.662;2023-09-19T15:51:42;9.48;;;5.50;;
53688;SDS011;39583;54.682;30.662;2023-09-19T15:54:12;13.40;;;5.95;;
53688;SDS011;39583;54.682;30.662;2023-09-19T15:56:44;11.38;;;6.10;;
53688;SDS011;39583;54.682;30.662;2023-09-19T15:59:13;18.00;;;6.47;;
53688;SDS011;39583;54.682;30.662;2023-09-19T16:01:43;12.10;;;5.35;;
53688;SDS011;39583;54.682;30.662;2023-09-19T16:04:11;9.80;;;5.28;;
53688;SDS011;39583;54.682;30.662;2023-09-19T16:06:39;10.95;;;4.53;;
53688;SDS011;39583;54.682;30.662;2023-09-19T16:09:09;11.70;;;4.80;;
53688;SDS011;39583;54.682;30.662;2023-09-19T16:11:37;6.70;;;4.60;;
53688;SDS011;39583;54.682;30.662;2023-09-19T16:14:04;7.85;;;4.45;;
53688;SDS011;39583;54.682;30.662;2023-09-19T16:16:37;7.82;;;4.63;;
53688;SDS011;39583;54.682;30.662;2023-09-19T16:19:05;7.72;;;5.00;;
53688;SDS011;39583;54.682;30.662;2023-09-19T16:21:38;7.05;;;4.75;;
53688;SDS011;39583;54.682;30.662;2023-09-19T16:24:08;10.05;;;4.20;;
53688;SDS011;39583;54.682;30.662;2023-09-19T16:26:38;9.57;;;4.90;;
53688;SDS011;39583;54.682;30.662;2023-09-19T16:29:06;8.20;;;4.97;;
53688;SDS011;39583;54.682;30.662;2023-09-19T16:31:33;8.35;;;5.20;;
53688;SDS011;39583;54.682;30.662;2023-09-19T16:34:02;8.35;;;5.05;;
53688;SDS011;39583;54.682;30.662;2023-09-19T16:36:29;12.23;;;5.03;;
53688;SDS011;39583;54.682;30.662;2023-09-19T16:38:58;11.60;;;5.00;;
53688;SDS011;39583;54.682;30.662;2023-09-19T16:41:27;11.82;;;5.75;;
53688;SDS011;39583;54.682;30.662;2023-09-19T16:43:55;13.10;;;5.47;;
53688;SDS011;39583;54.682;30.662;2023-09-19T16:46:25;17.27;;;6.10;;
53688;SDS011;39583;54.682;30.662;2023-09-19T16:48:52;13.30;;;5.35;;
53688;SDS011;39583;54.682;30.662;2023-09-19T16:51:30;9.82;;;5.32;;
53688;SDS011;39583;54.682;30.662;2023-09-19T16:53:59;14.15;;;5.68;;
53688;SDS011;39583;54.682;30.662;2023-09-19T16:56:28;12.82;;;6.28;;
53688;SDS011;39583;54.682;30.662;2023-09-19T16:59:00;16.05;;;6.43;;
53688;SDS011;39583;54.682;30.662;2023-09-19T17:01:29;8.27;;;5.75;;
53688;SDS011;39583;54.682;30.662;2023-09-19T17:03:59;15.90;;;6.18;;
53688;SDS011;39583;54.682;30.662;2023-09-19T17:06:30;9.93;;;5.93;;
53688;SDS011;39583;54.682;30.662;2023-09-19T17:08:58;8.70;;;5.13;;
53688;SDS011;39583;54.682;30.662;2023-09-19T17:11:25;13.10;;;5.97;;
53688;SDS011;39583;54.682;30.662;2023-09-19T17:13:53;9.10;;;5.47;;
53688;SDS011;39583;54.682;30.662;2023-09-19T17:16:21;11.38;;;5.43;;
53688;SDS011;39583;54.682;30.662;2023-09-19T17:18:53;11.00;;;6.32;;
53688;SDS011;39583;54.682;30.662;2023-09-19T17:21:23;10.77;;;5.93;;
53688;SDS011;39583;54.682;30.662;2023-09-19T17:23:53;14.75;;;5.50;;
53688;SDS011;39583;54.682;30.662;2023-09-19T17:26:21;12.75;;;5.68;;
53688;SDS011;39583;54.682;30.662;2023-09-19T17:28:52;11.55;;;5.78;;
53688;SDS011;39583;54.682;30.662;2023-09-19T17:31:20;10.50;;;5.68;;
53688;SDS011;39583;54.682;30.662;2023-09-19T17:33:51;8.15;;;6.07;;
53688;SDS011;39583;54.682;30.662;2023-09-19T17:36:22;8.43;;;5.25;;
53688;SDS011;39583;54.682;30.662;2023-09-19T17:38:55;9.20;;;5.60;;
53688;SDS011;39583;54.682;30.662;2023-09-19T17:41:26;14.35;;;5.63;;
53688;SDS011;39583;54.682;30.662;2023-09-19T17:43:54;15.85;;;5.20;;
53688;SDS011;39583;54.682;30.662;2023-09-19T17:46:25;8.35;;;5.05;;
53688;SDS011;39583;54.682;30.662;2023-09-19T17:48:57;6.68;;;4.82;;
53688;SDS011;39583;54.682;30.662;2023-09-19T17:51:27;9.35;;;5.20;;
53688;SDS011;39583;54.682;30.662;2023-09-19T17:53:55;13.18;;;5.22;;
53688;SDS011;39583;54.682;30.662;2023-09-19T17:56:28;9.02;;;4.55;;
53688;SDS011;39583;54.682;30.662;2023-09-19T17:58:56;10.52;;;5.20;;
53688;SDS011;39583;54.682;30.662;2023-09-19T18:01:26;9.75;;;4.65;;
53688;SDS011;39583;54.682;30.662;2023-09-19T18:03:56;6.35;;;4.63;;
53688;SDS011;39583;54.682;30.662;2023-09-19T18:06:27;7.43;;;5.00;;
53688;SDS011;39583;54.682;30.662;2023-09-19T18:08:55;9.73;;;4.60;;
53688;SDS011;39583;54.682;30.662;2023-09-19T18:11:24;8.93;;;5.03;;
53688;SDS011;39583;54.682;30.662;2023-09-19T18:13:57;9.25;;;4.95;;
53688;SDS011;39583;54.682;30.662;2023-09-19T18:18:59;8.20;;;4.65;;
53688;SDS011;39583;54.682;30.662;2023-09-19T18:21:32;11.30;;;4.55;;
53688;SDS011;39583;54.682;30.662;2023-09-19T18:24:00;10.88;;;5.32;;
53688;SDS011;39583;54.682;30.662;2023-09-19T18:26:32;6.82;;;4.43;;
53688;SDS011;39583;54.682;30.662;2023-09-19T18:29:00;6.80;;;4.78;;
53688;SDS011;39583;54.682;30.662;2023-09-19T18:31:28;10.48;;;4.80;;
53688;SDS011;39583;54.682;30.662;2023-09-19T18:33:56;6.85;;;4.85;;
53688;SDS011;39583;54.682;30.662;2023-09-19T18:36:24;7.13;;;4.63;;
53688;SDS011;39583;54.682;30.662;2023-09-19T18:38:51;10.52;;;5.20;;
